Time;durP1;ratioP1;P1;durP2;ratioP2;P2;SDS_P1;SDS_P2;PMS_P1;PMS_P2;Temp;Humidity;BMP_temperature;BMP_pressure;BME280_temperature;BME280_humidity;BME280_pressure;Samples;Min_cycle;Max_cycle;Signal;HPM_P1;HPM_P2
2022/06/26 00:00:29;;;;;;;6.25;4.93;;;17.10;99.90;;;;;;5055180;28;20020;-74
2022/06/26 00:02:55;;;;;;;8.15;5.15;;;17.10;99.90;;;;;;5055353;28;20111;-74
2022/06/26 00:05:21;;;;;;;8.35;5.55;;;17.00;99.90;;;;;;5073358;28;20016;-74
2022/06/26 00:07:47;;;;;;;7.80;4.72;;;17.00;99.90;;;;;;5055428;28;20020;-74
2022/06/26 00:10:13;;;;;;;8.82;5.63;;;17.00;99.90;;;;;;5073341;28;20028;-74
2022/06/26 00:12:38;;;;;;;8.85;5.25;;;17.00;99.90;;;;;;5073254;28;20020;-74
2022/06/26 00:15:04;;;;;;;5.47;4.57;;;17.00;99.90;;;;;;5073427;28;20023;-74
2022/06/26 00:17:30;;;;;;;8.40;5.53;;;17.00;99.90;;;;;;5074014;28;20040;-74
2022/06/26 00:19:55;;;;;;;8.05;5.15;;;17.00;99.90;;;;;;5073165;28;20028;-74
2022/06/26 00:22:21;;;;;;;7.47;5.28;;;16.90;99.90;;;;;;5055254;28;20119;-74
2022/06/26 00:24:47;;;;;;;10.68;5.00;;;16.90;99.90;;;;;;5072983;28;20474;-75
2022/06/26 00:27:12;;;;;;;9.05;5.38;;;16.90;99.90;;;;;;5072893;28;20024;-74
2022/06/26 00:29:38;;;;;;;8.52;5.20;;;16.90;99.90;;;;;;5073256;28;20107;-74
2022/06/26 00:32:05;;;;;;;8.70;6.05;;;16.90;99.90;;;;;;5077597;28;20520;-74
2022/06/26 00:34:31;;;;;;;7.65;5.43;;;16.90;99.90;;;;;;5079694;28;20027;-74
2022/06/26 00:36:57;;;;;;;7.90;5.22;;;16.90;99.90;;;;;;5079722;28;20397;-74
2022/06/26 00:39:23;;;;;;;6.82;5.10;;;16.90;99.90;;;;;;5079727;28;20035;-75
2022/06/26 00:41:51;;;;;;;8.20;5.75;;;17.30;99.90;;;;;;5079803;28;20032;-74
2022/06/26 00:44:19;;;;;;;9.63;5.72;;;16.90;99.90;;;;;;5079552;28;20075;-74
2022/06/26 00:46:45;;;;;;;9.43;5.57;;;16.90;99.90;;;;;;5080241;28;20457;-74
2022/06/26 00:49:12;;;;;;;8.02;5.85;;;16.90;99.90;;;;;;5080153;28;20021;-74
2022/06/26 00:51:52;;;;;;;9.05;5.45;;;16.90;99.90;;;;;;5079897;28;20079;-74
2022/06/26 00:54:19;;;;;;;7.43;5.50;;;16.90;99.90;;;;;;5079828;28;20078;-76
2022/06/26 00:56:45;;;;;;;16.70;6.93;;;16.90;99.90;;;;;;5061975;28;20111;-77
2022/06/26 00:59:14;;;;;;;9.25;5.93;;;16.90;99.90;;;;;;5080445;28;20063;-77
2022/06/26 01:01:43;;;;;;;8.73;5.90;;;16.90;99.90;;;;;;5062555;28;20031;-77
2022/06/26 01:04:09;;;;;;;;;;;16.90;99.90;;;;;;5080478;28;20032;-77
2022/06/26 01:06:37;;;;;;;10.90;6.70;;;16.90;99.90;;;;;;5061648;28;19913;-77
2022/06/26 01:09:03;;;;;;;9.38;5.88;;;16.90;99.90;;;;;;5061785;28;20078;-75
2022/06/26 01:11:30;;;;;;;9.95;6.47;;;16.90;99.90;;;;;;5079946;28;20043;-75
2022/06/26 01:13:57;;;;;;;11.10;7.28;;;17.00;99.90;;;;;;5061555;28;20028;-75
2022/06/26 01:16:24;;;;;;;11.85;6.75;;;17.00;99.90;;;;;;5061549;28;20027;-75
2022/06/26 01:18:56;;;;;;;11.65;7.03;;;17.00;99.90;;;;;;5079460;28;20016;-74
2022/06/26 01:21:25;;;;;;;10.57;6.43;;;17.00;99.90;;;;;;5063173;28;20081;-77
2022/06/26 01:23:52;;;;;;;10.63;7.03;;;17.00;99.90;;;;;;5080623;28;20096;-75
2022/06/26 01:26:20;;;;;;;12.02;6.88;;;17.00;99.90;;;;;;5061726;28;20020;-76
2022/06/26 01:28:45;;;;;;;11.52;7.88;;;17.00;99.90;;;;;;5079502;28;20013;-76
2022/06/26 01:31:11;;;;;;;13.88;8.32;;;17.10;99.90;;;;;;5079578;28;20020;-76
2022/06/26 01:33:37;;;;;;;15.15;8.48;;;17.10;99.90;;;;;;5061295;28;20108;-76
2022/06/26 01:36:03;;;;;;;13.60;8.30;;;17.10;99.90;;;;;;5061179;28;20039;-76
2022/06/26 01:38:29;;;;;;;15.50;8.07;;;17.10;99.90;;;;;;5078720;28;20067;-76
2022/06/26 01:40:56;;;;;;;13.35;8.52;;;17.10;99.90;;;;;;5079250;28;20033;-75
2022/06/26 01:43:29;;;;;;;13.98;9.05;;;17.00;99.90;;;;;;5075896;28;20034;-73
2022/06/26 01:45:56;;;;;;;20.05;9.57;;;17.00;99.90;;;;;;5057985;28;20366;-75
2022/06/26 01:48:24;;;;;;;15.98;9.02;;;17.00;99.90;;;;;;5075779;28;20028;-75
2022/06/26 01:50:52;;;;;;;15.40;9.98;;;17.10;99.90;;;;;;5057990;28;20075;-75
2022/06/26 01:53:18;;;;;;;13.02;8.50;;;17.00;99.90;;;;;;5057937;28;20025;-75
2022/06/26 01:55:44;;;;;;;19.08;9.95;;;17.00;99.90;;;;;;5076122;28;20055;-75
2022/06/26 01:58:10;;;;;;;15.82;10.07;;;17.10;99.90;;;;;;5076220;28;20029;-75
2022/06/26 02:00:38;;;;;;;15.18;9.32;;;17.00;99.90;;;;;;5075626;28;20028;-76
2022/06/26 02:03:05;;;;;;;17.38;9.25;;;17.00;99.90;;;;;;5057650;28;20024;-75
2022/06/26 02:05:31;;;;;;;16.55;9.35;;;17.00;99.90;;;;;;5075609;28;20056;-75
2022/06/26 02:07:57;;;;;;;15.45;8.10;;;16.90;99.90;;;;;;5075543;28;20024;-76
2022/06/26 02:15:54;;;;;;;15.55;8.25;;;16.80;99.90;;;;;;5075631;28;20128;-74
2022/06/26 02:18:20;;;;;;;21.60;9.50;;;16.70;99.90;;;;;;5075582;28;20057;-74
2022/06/26 02:20:46;;;;;;;19.83;8.50;;;16.70;99.90;;;;;;5057456;28;20398;-74
2022/06/26 02:23:12;;;;;;;17.83;9.35;;;16.60;99.90;;;;;;5057419;28;20064;-74
2022/06/26 02:25:38;;;;;;;17.00;8.50;;;16.60;99.90;;;;;;5075045;28;20025;-74
2022/06/26 02:28:04;;;;;;;15.70;8.30;;;16.50;99.90;;;;;;5074962;28;20029;-74
2022/06/26 02:30:29;;;;;;;13.98;8.73;;;16.50;99.90;;;;;;5075148;28;20058;-74
2022/06/26 02:32:56;;;;;;;17.98;8.10;;;16.40;99.90;;;;;;5075061;28;20432;-74
2022/06/26 02:35:23;;;;;;;14.38;8.00;;;16.40;99.90;;;;;;5075377;28;20031;-74
2022/06/26 02:37:49;;;;;;;14.32;7.10;;;16.30;99.90;;;;;;5075260;28;20021;-74
2022/06/26 02:40:15;;;;;;;12.73;6.72;;;16.30;99.90;;;;;;5057066;28;20473;-74
2022/06/26 02:42:41;;;;;;;14.25;7.47;;;16.20;99.90;;;;;;5074937;28;20025;-74
2022/06/26 02:45:07;;;;;;;15.38;7.57;;;16.10;99.90;;;;;;5075331;28;20034;-74
2022/06/26 02:47:33;;;;;;;17.15;8.23;;;16.10;99.90;;;;;;5074640;28;20017;-74
2022/06/26 02:49:59;;;;;;;18.65;7.78;;;16.10;99.90;;;;;;5074680;28;20051;-74
2022/06/26 02:52:24;;;;;;;14.35;8.15;;;16.00;99.90;;;;;;5057874;28;20050;-74
2022/06/26 02:54:50;;;;;;;14.65;7.32;;;16.00;99.90;;;;;;5074366;28;20103;-74
2022/06/26 02:57:16;;;;;;;15.90;7.70;;;15.90;99.90;;;;;;5074973;28;20024;-74
2022/06/26 02:59:41;;;;;;;13.98;7.72;;;15.90;99.90;;;;;;5056670;28;20028;-74
2022/06/26 03:02:07;;;;;;;18.00;8.95;;;15.90;99.90;;;;;;5074520;28;20074;-75
2022/06/26 03:04:32;;;;;;;15.73;7.97;;;15.90;99.90;;;;;;5074193;28;20024;-74
2022/06/26 03:06:58;;;;;;;17.83;7.88;;;15.80;99.90;;;;;;5074165;28;20021;-74
2022/06/26 03:09:24;;;;;;;19.15;7.78;;;15.80;99.90;;;;;;5056400;28;20050;-75
2022/06/26 03:11:49;;;;;;;16.30;7.78;;;15.80;99.90;;;;;;5074574;28;20024;-75
2022/06/26 03:14:15;;;;;;;17.55;8.23;;;15.80;99.90;;;;;;5074277;28;20385;-75
2022/06/26 03:16:40;;;;;;;21.77;9.15;;;15.80;99.90;;;;;;5074251;28;20024;-75
2022/06/26 03:19:06;;;;;;;15.82;8.13;;;15.80;99.90;;;;;;5056307;28;20021;-75
2022/06/26 03:21:31;;;;;;;15.27;7.55;;;15.80;99.90;;;;;;5056250;28;20025;-75
2022/06/26 03:24:03;;;;;;;17.35;7.25;;;16.00;99.90;;;;;;5074121;28;20024;-75
2022/06/26 03:26:31;;;;;;;17.65;7.22;;;15.80;99.90;;;;;;5074314;28;20031;-75
2022/06/26 03:28:57;;;;;;;15.20;6.78;;;15.80;99.90;;;;;;5073978;28;20013;-74
2022/06/26 03:31:22;;;;;;;15.80;7.45;;;15.80;99.90;;;;;;5073951;28;20074;-74
2022/06/26 03:33:48;;;;;;;13.82;6.60;;;15.70;99.90;;;;;;5056046;28;20081;-74
2022/06/26 03:36:14;;;;;;;13.70;6.65;;;15.70;99.90;;;;;;5073788;28;20032;-74
2022/06/26 03:38:39;;;;;;;15.18;6.13;;;15.70;99.90;;;;;;5073788;28;20032;-74
2022/06/26 03:41:05;;;;;;;13.60;6.15;;;15.60;99.90;;;;;;5073770;28;20108;-74
2022/06/26 03:43:30;;;;;;;14.63;5.88;;;15.70;99.90;;;;;;5074083;28;20036;-74
2022/06/26 03:45:56;;;;;;;16.05;6.05;;;15.70;99.90;;;;;;5073824;28;20062;-74
2022/06/26 03:48:22;;;;;;;13.38;6.15;;;15.50;99.90;;;;;;5055731;28;20058;-74
2022/06/26 03:50:48;;;;;;;12.30;6.57;;;15.60;99.90;;;;;;5073524;28;20532;-74
2022/06/26 03:53:14;;;;;;;15.00;6.05;;;15.50;99.90;;;;;;5073444;28;20016;-74
2022/06/26 03:55:39;;;;;;;13.20;6.10;;;15.50;99.90;;;;;;5073550;28;20031;-75
2022/06/26 03:58:05;;;;;;;15.02;6.47;;;15.40;99.90;;;;;;5074133;28;20072;-75
2022/06/26 04:00:31;;;;;;;16.05;7.85;;;15.40;99.90;;;;;;5073342;28;20024;-75
2022/06/26 04:02:56;;;;;;;20.85;6.72;;;15.30;99.90;;;;;;5055967;28;20130;-75
2022/06/26 04:05:22;;;;;;;17.77;7.78;;;15.30;99.90;;;;;;5095246;22;20072;-91
2022/06/26 04:07:48;;;;;;;14.82;6.60;;;15.30;99.90;;;;;;5075950;28;20373;-91
2022/06/26 04:10:14;;;;;;;16.27;6.88;;;15.20;99.90;;;;;;5076555;28;20020;-90
2022/06/26 04:12:41;;;;;;;16.45;7.50;;;15.30;99.90;;;;;;5094058;28;20024;-90
2022/06/26 04:15:08;;;;;;;16.20;6.70;;;15.30;99.90;;;;;;5094195;28;20024;-91
2022/06/26 04:17:38;;;;;;;15.23;7.57;;;15.20;99.90;;;;;;5094053;28;20448;-90
2022/06/26 04:20:05;;;;;;;13.88;6.97;;;15.20;99.90;;;;;;5075372;28;20081;-90
2022/06/26 04:22:30;;;;;;;15.82;6.57;;;15.30;99.90;;;;;;5094196;28;20035;-91
2022/06/26 04:24:56;;;;;;;15.43;6.80;;;15.30;99.90;;;;;;5075894;28;20027;-91
2022/06/26 04:27:22;;;;;;;21.92;7.75;;;15.30;99.90;;;;;;5094072;28;20024;-91
2022/06/26 04:29:48;;;;;;;15.73;6.75;;;15.30;99.90;;;;;;5076018;28;20468;-91
2022/06/26 04:32:16;;;;;;;14.75;6.03;;;17.40;99.90;;;;;;5075577;28;20020;-90
2022/06/26 04:34:45;;;;;;;13.45;6.10;;;15.20;99.90;;;;;;5075623;28;20065;-91
2022/06/26 04:37:13;;;;;;;12.52;5.82;;;17.50;99.90;;;;;;5075538;28;20027;-91
2022/06/26 04:39:39;;;;;;;13.02;5.88;;;15.30;99.90;;;;;;5093912;28;20103;-91
2022/06/26 04:42:13;;;;;;;14.30;6.47;;;16.70;99.90;;;;;;5075333;28;20047;-91
2022/06/26 04:44:41;;;;;;;15.23;5.95;;;15.30;99.90;;;;;;5075454;28;20028;-91
2022/06/26 04:47:12;;;;;;;18.50;6.38;;;15.30;99.90;;;;;;5075769;28;20021;-91
2022/06/26 04:49:41;;;;;;;16.38;6.13;;;15.50;99.90;;;;;;5075532;28;20411;-91
2022/06/26 04:52:21;;;;;;;;;;;;;;;;;;;;;
2022/06/26 04:54:50;;;;;;;15.73;5.82;;;15.30;99.90;;;;;;5093786;28;20030;-90
2022/06/26 04:57:30;;;;;;;15.77;6.38;;;15.80;99.90;;;;;;5075766;28;20048;-91
2022/06/26 05:00:05;;;;;;;11.30;5.22;;;14.80;99.90;;;;;;5076845;28;20028;-91
2022/06/26 05:02:31;;;;;;;14.13;5.97;;;18.80;99.90;;;;;;5075750;28;20047;-91
2022/06/26 05:05:02;;;;;;;14.02;6.78;;;16.30;99.90;;;;;;5075407;28;20044;-90
2022/06/26 05:07:31;;;;;;;13.80;6.53;;;16.20;99.90;;;;;;5093333;28;20024;-90
2022/06/26 05:10:00;;;;;;;15.38;6.85;;;15.00;99.90;;;;;;5076418;28;20342;-89
2022/06/26 05:12:26;;;;;;;;;;;16.70;99.90;;;;;;5076438;28;20376;-89
2022/06/26 05:14:51;;;;;;;15.25;6.53;;;16.30;99.90;;;;;;5075482;28;19938;-89
2022/06/26 05:17:17;;;;;;;14.45;5.97;;;18.00;99.90;;;;;;5076874;28;20028;-89
2022/06/26 05:19:43;;;;;;;10.98;5.30;;;19.30;99.90;;;;;;5078989;28;20028;-91
2022/06/26 05:22:12;;;;;;;15.20;5.88;;;16.50;99.90;;;;;;5079239;28;20028;-91
2022/06/26 05:24:37;;;;;;;12.82;5.43;;;18.80;99.90;;;;;;5078979;28;20166;-91
2022/06/26 05:27:03;;;;;;;12.50;6.15;;;17.70;99.90;;;;;;5079088;28;20036;-90
2022/06/26 05:29:29;;;;;;;10.00;5.05;;;16.50;99.90;;;;;;5079247;28;20024;-91
2022/06/26 05:31:55;;;;;;;11.75;4.68;;;17.00;99.90;;;;;;5097004;28;20121;-90
2022/06/26 05:34:20;;;;;;;9.18;3.55;;;18.80;99.90;;;;;;5078928;28;20070;-91
2022/06/26 05:36:46;;;;;;;11.18;5.18;;;17.40;99.90;;;;;;5079044;28;20498;-90
2022/06/26 05:39:12;;;;;;;10.80;4.85;;;19.00;99.90;;;;;;5097114;28;20032;-90
2022/06/26 05:41:37;;;;;;;11.20;4.40;;;16.70;99.90;;;;;;5079487;28;20115;-90
2022/06/26 05:44:04;;;;;;;9.10;4.55;;;17.30;99.90;;;;;;5078782;28;20020;-90
2022/06/26 05:46:29;;;;;;;11.23;4.95;;;18.30;99.90;;;;;;5078806;28;20396;-90
2022/06/26 05:48:55;;;;;;;11.95;4.45;;;18.30;99.90;;;;;;5096975;28;20095;-91
2022/06/26 05:51:21;;;;;;;8.95;4.18;;;17.80;99.90;;;;;;5078722;28;20040;-90
2022/06/26 05:53:47;;;;;;;6.82;3.90;;;15.90;99.90;;;;;;5078383;28;20431;-90
2022/06/26 05:56:13;;;;;;;9.25;4.25;;;17.40;99.90;;;;;;5078592;28;20020;-90
2022/06/26 05:58:38;;;;;;;9.60;4.40;;;17.50;99.90;;;;;;5078383;28;20024;-91
2022/06/26 06:01:04;;;;;;;9.38;3.70;;;17.30;99.90;;;;;;5078601;28;20012;-91
2022/06/26 06:03:30;;;;;;;10.27;4.38;;;19.30;99.90;;;;;;5078836;28;20020;-91
2022/06/26 06:05:56;;;;;;;6.30;3.42;;;20.10;99.90;;;;;;5078524;28;20051;-91
2022/06/26 06:08:21;;;;;;;11.60;3.30;;;17.30;99.90;;;;;;5078613;28;20020;-91
2022/06/26 06:10:47;;;;;;;5.65;2.85;;;17.70;99.90;;;;;;5078271;28;20024;-91
2022/06/26 06:13:14;;;;;;;5.82;3.25;;;17.90;99.90;;;;;;5078726;28;20031;-92
2022/06/26 06:15:39;;;;;;;10.10;3.58;;;17.40;99.90;;;;;;5096937;28;20030;-90
2022/06/26 06:18:06;;;;;;;7.15;3.75;;;21.00;99.90;;;;;;5078340;28;20107;-91
2022/06/26 06:20:32;;;;;;;5.22;2.83;;;17.60;99.90;;;;;;5078460;28;20106;-91
2022/06/26 06:23:14;;;;;;;;;;;;;;;;;;;;;
2022/06/26 06:25:40;;;;;;;5.60;2.95;;;18.10;99.90;;;;;;5096762;28;20032;-91
2022/06/26 06:28:20;;;;;;;8.55;3.58;;;20.70;99.90;;;;;;5077933;28;20111;-92
2022/06/26 06:30:46;;;;;;;5.45;3.45;;;18.10;99.90;;;;;;5077288;28;20028;-92
2022/06/26 06:33:31;;;;;;;13.68;4.30;;;20.00;99.90;;;;;;5077900;28;20077;-92
2022/06/26 06:36:19;;;;;;;6.15;3.40;;;18.80;99.90;;;;;;5077835;28;20093;-91
2022/06/26 06:38:45;;;;;;;6.68;3.40;;;17.50;99.90;;;;;;5078180;28;20035;-91
2022/06/26 06:41:31;;;;;;;6.82;3.47;;;18.80;99.90;;;;;;5078191;28;20024;-91
2022/06/26 06:44:06;;;;;;;5.35;2.92;;;19.20;99.90;;;;;;5078862;28;20042;-90
2022/06/26 06:46:32;;;;;;;7.70;2.67;;;19.50;99.90;;;;;;5095994;28;20034;-91
2022/06/26 06:49:06;;;;;;;5.78;3.20;;;19.20;99.90;;;;;;5078880;28;20103;-91
2022/06/26 06:54:00;;;;;;;5.40;2.80;;;19.00;99.90;;;;;;5073432;28;20044;-76
2022/06/26 06:56:26;;;;;;;4.28;2.78;;;19.00;99.90;;;;;;5056814;28;20021;-76
2022/06/26 06:58:52;;;;;;;3.08;2.10;;;19.10;99.90;;;;;;5074653;28;20489;-75
2022/06/26 07:01:17;;;;;;;6.10;2.20;;;19.20;99.90;;;;;;5056554;28;20444;-76
2022/06/26 07:03:43;;;;;;;5.00;2.00;;;19.10;99.90;;;;;;5074559;28;20028;-76
2022/06/26 07:06:10;;;;;;;4.95;2.28;;;19.10;99.90;;;;;;5074376;28;20044;-75
2022/06/26 07:08:36;;;;;;;1.97;1.40;;;19.20;99.90;;;;;;5074371;28;20021;-76
2022/06/26 07:11:02;;;;;;;4.82;2.63;;;19.20;99.90;;;;;;5075064;28;20021;-76
2022/06/26 07:13:27;;;;;;;3.15;1.17;;;19.30;99.90;;;;;;5074402;28;20027;-76
2022/06/26 07:15:54;;;;;;;1.60;1.02;;;19.30;99.90;;;;;;5074567;28;20028;-76
2022/06/26 07:18:22;;;;;;;3.28;1.02;;;19.10;99.90;;;;;;5074231;28;20108;-75
2022/06/26 07:20:47;;;;;;;2.87;1.23;;;19.00;99.90;;;;;;5056294;28;20028;-76
2022/06/26 07:23:13;;;;;;;2.47;0.90;;;19.00;99.90;;;;;;5056236;28;20035;-76
2022/06/26 07:25:39;;;;;;;2.72;0.75;;;19.10;99.90;;;;;;5074184;28;20025;-76
2022/06/26 07:28:10;;;;;;;2.83;0.90;;;19.20;99.90;;;;;;5074358;28;20534;-76
2022/06/26 07:30:36;;;;;;;6.80;1.60;;;19.50;99.90;;;;;;5074075;28;20055;-76
2022/06/26 07:34:12;;;;;;;4.32;1.27;;;19.30;99.90;;;;;;5074016;28;20052;-76
2022/06/26 07:35:52;;;;;;;2.35;0.57;;;19.30;99.90;;;;;;5073746;28;20039;-76
2022/06/26 07:38:17;;;;;;;3.50;0.82;;;19.40;99.90;;;;;;5055940;28;20123;-76
2022/06/26 07:40:43;;;;;;;3.75;0.95;;;19.40;99.90;;;;;;5072788;28;20020;-76
2022/06/26 07:43:08;;;;;;;8.07;0.68;;;19.50;99.90;;;;;;5073672;28;20032;-75
2022/06/26 07:45:34;;;;;;;3.70;0.35;;;19.50;99.90;;;;;;5073684;28;20025;-76
2022/06/26 07:48:00;;;;;;;4.82;0.47;;;19.50;99.90;;;;;;5055743;28;20439;-76
2022/06/26 07:50:25;;;;;;;3.22;1.02;;;19.60;99.90;;;;;;5073925;28;20433;-76
2022/06/26 07:52:51;;;;;;;2.85;0.20;;;19.60;99.90;;;;;;5073589;28;20063;-76
2022/06/26 07:55:17;;;;;;;4.03;0.55;;;19.40;99.90;;;;;;5055678;28;20055;-76
2022/06/26 07:57:43;;;;;;;0.95;0.30;;;19.30;99.90;;;;;;5073732;28;20017;-76
2022/06/26 08:00:10;;;;;;;0.75;0.10;;;19.30;99.90;;;;;;5055615;28;20020;-76
2022/06/26 08:02:36;;;;;;;1.90;0.10;;;19.30;99.90;;;;;;5073537;28;20028;-76
2022/06/26 08:05:02;;;;;;;1.88;0.47;;;19.40;99.90;;;;;;5073558;28;20025;-75
2022/06/26 08:07:27;;;;;;;0.90;0.10;;;19.30;99.90;;;;;;5055394;28;20044;-75
2022/06/26 08:09:53;;;;;;;1.52;0.22;;;19.20;99.90;;;;;;5055506;28;20378;-76
2022/06/26 08:12:19;;;;;;;0.95;0.10;;;19.10;99.90;;;;;;5073416;28;20056;-76
2022/06/26 08:14:44;;;;;;;1.15;0.10;;;19.20;99.90;;;;;;5055273;28;20101;-76
2022/06/26 08:17:10;;;;;;;1.88;0.15;;;19.10;99.90;;;;;;5055436;28;20028;-76
2022/06/26 08:19:35;;;;;;;1.60;0.10;;;19.20;99.90;;;;;;5055319;28;20027;-77
2022/06/26 08:22:01;;;;;;;4.18;0.10;;;19.20;99.90;;;;;;5055602;28;20077;-77
2022/06/26 08:24:26;;;;;;;0.82;0.38;;;19.20;99.90;;;;;;5056502;28;20493;-76
2022/06/26 08:26:53;;;;;;;1.90;0.00;;;19.30;99.90;;;;;;5058953;28;20024;-76
2022/06/26 08:29:19;;;;;;;1.10;0.00;;;19.30;99.90;;;;;;5074388;28;20008;-75
2022/06/26 08:31:45;;;;;;;0.80;0.00;;;19.20;99.90;;;;;;5073327;28;20103;-76
2022/06/26 08:34:10;;;;;;;2.58;0.00;;;19.20;99.90;;;;;;5073269;28;20021;-76
2022/06/26 08:36:38;;;;;;;0.63;0.00;;;19.30;99.90;;;;;;5073370;28;20028;-76
2022/06/26 08:39:07;;;;;;;2.28;0.20;;;19.40;99.90;;;;;;5073089;28;20028;-76
2022/06/26 08:41:40;;;;;;;3.83;0.00;;;19.40;99.90;;;;;;5073942;28;20017;-76
2022/06/26 08:44:07;;;;;;;2.83;0.20;;;19.40;99.90;;;;;;5055222;28;20047;-76
2022/06/26 08:46:40;;;;;;;1.48;0.10;;;19.60;99.90;;;;;;5054922;28;20020;-76
2022/06/26 08:49:13;;;;;;;2.95;0.17;;;19.50;99.90;;;;;;5073150;28;20029;-76
2022/06/26 08:51:42;;;;;;;2.03;0.00;;;19.50;99.90;;;;;;5055601;28;20111;-76
2022/06/26 08:54:10;;;;;;;0.93;0.10;;;19.60;99.90;;;;;;5077240;28;20028;-76
2022/06/26 08:56:38;;;;;;;0.50;0.00;;;19.60;99.90;;;;;;5058951;28;20032;-76
2022/06/26 08:59:04;;;;;;;1.00;0.13;;;19.60;99.90;;;;;;5077010;28;20028;-76
2022/06/26 09:01:33;;;;;;;3.80;0.60;;;19.70;99.90;;;;;;5077160;28;20024;-76
2022/06/26 09:03:58;;;;;;;1.52;0.20;;;19.70;99.90;;;;;;5077082;28;20396;-76
2022/06/26 09:06:24;;;;;;;1.42;0.00;;;19.90;99.90;;;;;;5058850;28;20108;-76
2022/06/26 09:08:50;;;;;;;0.20;0.10;;;20.00;99.90;;;;;;5076972;28;20056;-76
2022/06/26 09:11:17;;;;;;;1.23;0.10;;;20.20;99.90;;;;;;5076729;28;20020;-76
2022/06/26 09:13:45;;;;;;;1.88;0.10;;;20.30;99.90;;;;;;5077634;28;20021;-78
2022/06/26 09:16:12;;;;;;;3.35;0.13;;;20.30;99.90;;;;;;5076738;28;20078;-75
2022/06/26 09:18:39;;;;;;;0.85;0.20;;;20.30;99.90;;;;;;5076488;28;20028;-75
2022/06/26 09:21:07;;;;;;;1.65;0.20;;;20.30;99.90;;;;;;5077131;28;20036;-75
2022/06/26 09:23:34;;;;;;;3.67;0.40;;;20.40;99.90;;;;;;5076872;28;20554;-75
2022/06/26 09:26:01;;;;;;;1.55;0.13;;;20.50;99.90;;;;;;5076330;28;20048;-75
2022/06/26 09:28:26;;;;;;;0.73;0.20;;;20.40;99.90;;;;;;5058443;28;20042;-75
2022/06/26 09:30:58;;;;;;;1.63;0.00;;;20.50;99.90;;;;;;5076376;28;20095;-75
2022/06/26 09:33:26;;;;;;;1.00;0.13;;;20.70;99.90;;;;;;5076482;28;20021;-76
2022/06/26 09:35:53;;;;;;;1.80;0.27;;;20.80;99.90;;;;;;5076318;28;20074;-76
2022/06/26 09:38:24;;;;;;;1.65;0.03;;;20.70;99.90;;;;;;5076430;28;20028;-75
2022/06/26 09:40:58;;;;;;;0.93;0.13;;;20.90;99.90;;;;;;5058306;28;20021;-76
2022/06/26 09:43:25;;;;;;;2.63;0.00;;;21.00;99.90;;;;;;5058220;28;20032;-76
2022/06/26 09:45:53;;;;;;;2.15;0.08;;;21.00;99.90;;;;;;5076300;28;20481;-76
2022/06/26 09:48:22;;;;;;;0.73;0.00;;;21.00;99.90;;;;;;5075956;28;20021;-76
2022/06/26 09:50:48;;;;;;;;;;;21.00;99.90;;;;;;5076337;28;20024;-75
2022/06/26 09:53:14;;;;;;;2.20;0.13;;;21.10;99.90;;;;;;5057909;28;19965;-76
2022/06/26 09:55:40;;;;;;;2.58;0.40;;;21.20;99.90;;;;;;5076205;28;20032;-76
2022/06/26 09:58:08;;;;;;;0.70;0.10;;;21.20;99.90;;;;;;5075815;28;20028;-76
2022/06/26 10:00:35;;;;;;;2.40;0.30;;;21.10;99.90;;;;;;5076095;28;20031;-76
2022/06/26 10:08:33;;;;;;;1.73;0.10;;;21.20;99.90;;;;;;5075925;28;20032;-76
2022/06/26 10:11:00;;;;;;;2.95;0.10;;;21.40;99.90;;;;;;5057652;28;20027;-76
2022/06/26 10:13:28;;;;;;;1.00;0.10;;;21.50;99.90;;;;;;5075571;28;20436;-76
2022/06/26 10:16:01;;;;;;;2.40;0.45;;;21.70;99.90;;;;;;5057616;28;20024;-76
2022/06/26 10:19:11;;;;;;;4.47;0.52;;;21.80;99.90;;;;;;5075978;28;20033;-76
2022/06/26 10:21:38;;;;;;;1.35;0.20;;;22.00;99.90;;;;;;5014399;28;20084;-75
2022/06/26 10:24:05;;;;;;;1.17;0.30;;;22.10;99.90;;;;;;5013772;28;20064;-76
2022/06/26 10:26:33;;;;;;;2.15;0.05;;;22.20;99.90;;;;;;5045888;28;20463;-76
2022/06/26 10:29:01;;;;;;;1.65;0.00;;;22.20;99.90;;;;;;5075578;28;20495;-75
2022/06/26 10:31:43;;;;;;;;;;;22.20;99.90;;;;;;5057929;28;20055;-77
2022/06/26 10:34:20;;;;;;;0.55;0.10;;;21.90;99.90;;;;;;5075160;28;19946;-76
2022/06/26 10:37:15;;;;;;;1.65;0.10;;;22.10;99.90;;;;;;5075381;28;20028;-74
2022/06/26 10:39:45;;;;;;;1.15;0.00;;;22.30;99.90;;;;;;5075686;28;20545;-74
2022/06/26 10:45:09;;;;;;;1.30;0.15;;;22.30;99.90;;;;;;5076152;28;20166;-77
2022/06/26 10:47:56;;;;;;;4.10;0.30;;;22.50;99.90;;;;;;5057482;28;20021;-76
2022/06/26 10:50:31;;;;;;;2.83;0.30;;;22.80;99.90;;;;;;5075503;28;20047;-77
2022/06/26 10:53:37;;;;;;;3.03;0.65;;;22.90;99.90;;;;;;5075369;28;20047;-77
2022/06/26 10:56:05;;;;;;;0.65;0.28;;;22.80;99.90;;;;;;4993908;28;20592;-76
2022/06/26 10:58:39;;;;;;;1.55;0.43;;;22.90;99.90;;;;;;4993564;28;20026;-75
2022/06/26 11:01:07;;;;;;;0.98;0.20;;;23.10;99.90;;;;;;5020863;28;20039;-75
2022/06/26 11:03:33;;;;;;;2.78;0.10;;;23.20;99.90;;;;;;5074804;28;20331;-76
2022/06/26 11:06:02;;;;;;;1.98;0.28;;;23.20;99.90;;;;;;5074433;28;20021;-76
2022/06/26 11:08:31;;;;;;;3.95;0.68;;;23.20;99.90;;;;;;5056428;28;20032;-76
2022/06/26 11:11:01;;;;;;;;;;;23.30;99.90;;;;;;5075433;28;20023;-75
2022/06/26 11:13:26;;;;;;;1.30;0.10;;;23.50;99.90;;;;;;5074372;28;19904;-76
2022/06/26 11:15:52;;;;;;;3.03;0.05;;;23.70;99.90;;;;;;5074120;28;20032;-75
2022/06/26 11:18:17;;;;;;;0.32;0.00;;;23.60;99.90;;;;;;5056301;28;20021;-75
2022/06/26 11:20:52;;;;;;;5.28;0.47;;;23.70;99.90;;;;;;5056631;28;20095;-75
2022/06/26 11:23:29;;;;;;;2.00;0.10;;;23.80;99.90;;;;;;5074774;28;20099;-77
2022/06/26 11:26:04;;;;;;;1.40;0.10;;;23.80;99.20;;;;;;5074888;28;20020;-77
2022/06/26 11:28:30;;;;;;;2.47;0.00;;;23.70;99.90;;;;;;5074494;28;20103;-77
2022/06/26 11:30:57;;;;;;;0.52;0.20;;;23.70;99.90;;;;;;5055880;28;20032;-77
2022/06/26 11:33:31;;;;;;;2.15;0.32;;;23.80;98.60;;;;;;5056409;28;20485;-76
2022/06/26 11:36:04;;;;;;;3.10;0.40;;;23.80;99.90;;;;;;5056147;28;20027;-76
2022/06/26 11:38:31;;;;;;;1.55;0.17;;;23.90;98.30;;;;;;5076420;28;20028;-76
2022/06/26 11:41:04;;;;;;;1.60;0.13;;;24.00;98.50;;;;;;5056435;28;20028;-76
2022/06/26 11:43:31;;;;;;;6.60;0.32;;;24.20;97.80;;;;;;5056044;28;20024;-75
2022/06/26 11:45:58;;;;;;;0.85;0.10;;;24.20;95.60;;;;;;5074138;28;20154;-76
2022/06/26 11:48:24;;;;;;;1.23;0.10;;;24.20;96.70;;;;;;5073968;28;20024;-76
2022/06/26 11:50:52;;;;;;;3.35;0.20;;;24.00;95.40;;;;;;5073816;28;20066;-77
2022/06/26 11:53:30;;;;;;;0.70;0.25;;;24.00;95.70;;;;;;5055883;28;20025;-75
2022/06/26 11:56:01;;;;;;;1.65;0.60;;;24.00;94.70;;;;;;5056277;28;20032;-77
2022/06/26 11:58:29;;;;;;;2.20;0.15;;;23.90;93.80;;;;;;5056032;28;20020;-73
2022/06/26 12:01:11;;;;;;;0.75;0.17;;;23.90;96.10;;;;;;5055776;28;20013;-76
2022/06/26 12:03:49;;;;;;;2.40;0.10;;;24.00;96.60;;;;;;5074103;28;20025;-76
2022/06/26 12:06:39;;;;;;;3.33;0.30;;;24.10;96.50;;;;;;5073781;28;20031;-77
2022/06/26 12:09:20;;;;;;;4.53;0.20;;;24.40;96.50;;;;;;5074345;28;20104;-76
2022/06/26 12:11:50;;;;;;;1.80;0.22;;;24.60;95.90;;;;;;5056639;28;20027;-76
2022/06/26 12:14:18;;;;;;;2.83;0.15;;;24.80;94.80;;;;;;5074355;28;20029;-77
2022/06/26 12:16:51;;;;;;;1.58;0.20;;;25.10;94.10;;;;;;5055357;28;20028;-76
2022/06/26 12:19:18;;;;;;;3.38;0.35;;;25.40;93.90;;;;;;5055483;28;20508;-76
2022/06/26 12:21:48;;;;;;;1.73;0.15;;;26.00;92.70;;;;;;5073469;28;20020;-76
2022/06/26 12:24:15;;;;;;;0.75;0.10;;;26.20;91.00;;;;;;5073369;28;20481;-76
2022/06/26 12:26:42;;;;;;;1.88;0.47;;;26.60;89.70;;;;;;5054706;28;20020;-76
2022/06/26 12:29:13;;;;;;;2.55;0.10;;;26.70;88.20;;;;;;5073333;28;20031;-76
2022/06/26 12:31:39;;;;;;;2.72;0.20;;;26.80;84.90;;;;;;5073285;28;20028;-75
2022/06/26 12:34:06;;;;;;;2.15;0.30;;;26.80;80.90;;;;;;5073110;28;20037;-76
2022/06/26 12:36:33;;;;;;;0.82;0.10;;;26.60;80.40;;;;;;5073288;28;20082;-76
2022/06/26 12:39:00;;;;;;;2.10;0.40;;;26.20;80.60;;;;;;5073196;28;20107;-76
2022/06/26 12:41:26;;;;;;;1.98;0.15;;;26.00;82.40;;;;;;5073232;28;20028;-76
2022/06/26 12:43:53;;;;;;;0.82;0.28;;;25.90;83.00;;;;;;5073579;28;20032;-76
2022/06/26 12:46:19;;;;;;;1.60;0.50;;;25.80;82.50;;;;;;5072996;28;20077;-75
2022/06/26 12:48:46;;;;;;;3.35;0.20;;;25.60;83.30;;;;;;5072751;28;20350;-76
2022/06/26 12:51:13;;;;;;;2.42;0.28;;;25.20;80.40;;;;;;5072889;28;20036;-76
2022/06/26 12:53:39;;;;;;;1.45;0.10;;;24.80;85.40;;;;;;5072898;28;20028;-76
2022/06/26 12:56:05;;;;;;;0.82;0.20;;;24.50;87.90;;;;;;5073645;28;20079;-76
2022/06/26 12:58:31;;;;;;;0.82;0.20;;;24.30;82.50;;;;;;5054757;28;20017;-76
2022/06/26 13:01:00;;;;;;;1.63;0.30;;;24.00;85.00;;;;;;5072909;28;20496;-76
2022/06/26 13:03:28;;;;;;;3.15;0.20;;;23.90;88.30;;;;;;5072607;28;20174;-76
2022/06/26 13:05:53;;;;;;;2.45;0.00;;;23.90;88.50;;;;;;5072905;28;20106;-76